createdAt,value
2018-03-23T00:00:55.375Z,3.58
2018-03-23T00:02:22.577Z,3.57
2018-03-23T00:03:49.758Z,3.56
2018-03-23T00:05:18.083Z,3.55
2018-03-23T00:06:44.368Z,3.57
2018-03-23T00:08:11.549Z,3.59
2018-03-23T00:09:39.652Z,3.61
2018-03-23T00:11:06.721Z,3.64
2018-03-23T00:12:32.998Z,3.65
2018-03-23T00:14:00.301Z,3.65
2018-03-23T00:15:27.421Z,3.64
2018-03-23T00:16:55.690Z,3.58
2018-03-23T00:18:22.954Z,3.52
2018-03-23T00:19:49.204Z,3.51
2018-03-23T00:21:16.425Z,3.51
2018-03-23T00:22:44.680Z,3.48
2018-03-23T00:24:10.446Z,3.38
2018-03-23T00:25:37.622Z,3.32
2018-03-23T00:27:05.848Z,3.28
2018-03-23T00:28:32.005Z,3.28
2018-03-23T00:29:59.272Z,3.33
2018-03-23T00:31:26.440Z,3.38
2018-03-23T00:32:54.532Z,3.43
2018-03-23T00:34:20.788Z,3.48
2018-03-23T00:35:49.044Z,3.52
2018-03-23T00:37:15.273Z,3.55
2018-03-23T00:38:43.468Z,3.53
2018-03-23T00:40:10.292Z,3.53
2018-03-23T00:41:36.560Z,3.54
2018-03-23T00:43:03.938Z,3.56
2018-03-23T00:44:30.969Z,3.58
2018-03-23T00:45:58.172Z,3.61
2018-03-23T00:47:26.444Z,3.62
2018-03-23T00:48:52.763Z,3.55
2018-03-23T00:50:20.951Z,3.51
2018-03-23T00:51:48.110Z,3.48
2018-03-23T00:53:14.129Z,3.46
2018-03-23T00:54:41.352Z,3.42
2018-03-23T00:56:09.559Z,3.42
2018-03-23T00:57:35.713Z,3.43
2018-03-23T00:59:03.100Z,3.43
2018-03-23T01:00:30.099Z,3.43
2018-03-23T01:01:58.469Z,3.43
2018-03-23T01:03:24.655Z,3.44
2018-03-23T01:04:51.902Z,3.45
2018-03-23T01:06:20.086Z,3.46
2018-03-23T01:07:47.292Z,3.48
2018-03-23T01:09:14.556Z,3.50
2018-03-23T01:10:41.613Z,3.53
2018-03-23T01:12:07.856Z,3.54
2018-03-23T01:13:34.922Z,3.53
2018-03-23T01:15:03.285Z,3.53
2018-03-23T01:16:29.453Z,3.54
2018-03-23T01:17:57.728Z,3.56
2018-03-23T01:19:24.824Z,3.57
2018-03-23T01:20:51.105Z,3.58
2018-03-23T01:22:18.393Z,3.50
2018-03-23T01:23:45.440Z,3.39
2018-03-23T01:25:13.735Z,3.32
2018-03-23T01:26:39.826Z,3.31
2018-03-23T01:28:07.144Z,3.34
2018-03-23T01:29:35.319Z,3.38
2018-03-23T01:31:02.558Z,3.41
2018-03-23T01:32:29.701Z,3.44
2018-03-23T01:33:55.976Z,3.47
2018-03-23T01:35:24.117Z,3.49
2018-03-23T01:36:51.272Z,3.50
2018-03-23T01:38:18.479Z,3.53
2018-03-23T01:39:45.727Z,3.55
2018-03-23T01:41:12.968Z,3.55
2018-03-23T01:42:39.439Z,3.55
2018-03-23T01:44:06.541Z,3.56
2018-03-23T01:45:34.786Z,3.56
2018-03-23T01:47:02.031Z,3.57
2018-03-23T01:48:28.229Z,3.57
2018-03-23T01:49:56.446Z,3.57
2018-03-23T01:51:23.522Z,3.53
2018-03-23T01:52:50.629Z,3.52
2018-03-23T01:54:16.955Z,3.52
2018-03-23T01:55:44.241Z,3.53
2018-03-23T01:57:12.297Z,3.54
2018-03-23T01:58:38.586Z,3.54
2018-03-23T02:00:06.660Z,3.54
2018-03-23T02:01:32.866Z,3.54
2018-03-23T02:03:00.110Z,3.56
2018-03-23T02:04:27.284Z,3.57
2018-03-23T02:05:55.504Z,3.57
2018-03-23T02:07:21.672Z,3.56
2018-03-23T02:08:48.971Z,3.56
2018-03-23T02:10:17.307Z,3.57
2018-03-23T02:11:43.556Z,3.58
2018-03-23T02:13:11.741Z,3.58
2018-03-23T02:14:37.874Z,3.58
2018-03-23T02:16:05.045Z,3.57
2018-03-23T02:17:32.295Z,3.56
2018-03-23T02:19:00.557Z,3.55
2018-03-23T02:20:27.728Z,3.54
2018-03-23T02:21:53.871Z,3.53
2018-03-23T02:23:22.069Z,3.53
2018-03-23T02:24:48.281Z,3.54
2018-03-23T02:26:15.448Z,3.53
2018-03-23T02:27:42.652Z,3.51
2018-03-23T02:29:09.724Z,3.50
2018-03-23T02:30:36.968Z,3.51
2018-03-23T02:32:05.232Z,3.52
2018-03-23T02:33:32.598Z,3.52
2018-03-23T02:34:59.900Z,3.53
2018-03-23T02:36:27.165Z,3.53
2018-03-23T02:37:53.412Z,3.55
2018-03-23T02:39:21.581Z,3.55
2018-03-23T02:40:48.702Z,3.54
2018-03-23T02:42:15.918Z,3.54
2018-03-23T02:43:42.243Z,3.55
2018-03-23T02:45:10.078Z,3.54
2018-03-23T02:46:36.217Z,3.56
2018-03-23T02:48:03.495Z,3.56
2018-03-23T02:49:30.653Z,3.56
2018-03-23T02:50:58.908Z,3.56
2018-03-23T02:52:25.143Z,3.56
2018-03-23T02:53:53.438Z,3.55
2018-03-23T02:55:20.424Z,3.55
2018-03-23T02:56:47.460Z,3.56
2018-03-23T02:58:13.562Z,3.58
2018-03-23T02:59:40.674Z,3.58
2018-03-23T03:01:07.707Z,3.58
2018-03-23T03:02:34.874Z,3.57
2018-03-23T03:04:02.059Z,3.57
2018-03-23T03:05:29.276Z,3.57
2018-03-23T03:06:56.640Z,3.56
2018-03-23T03:08:24.968Z,3.55
2018-03-23T03:09:51.289Z,3.55
2018-03-23T03:11:18.455Z,3.55
2018-03-23T03:12:46.714Z,3.56
2018-03-23T03:14:12.825Z,3.56
2018-03-23T03:15:39.902Z,3.55
2018-03-23T03:17:07.851Z,3.50
2018-03-23T03:18:34.924Z,3.43
2018-03-23T03:20:02.239Z,3.29
2018-03-23T03:21:29.236Z,3.19
2018-03-23T03:22:55.570Z,3.15
2018-03-23T03:24:22.724Z,3.17
2018-03-23T03:25:49.940Z,3.22
2018-03-23T03:27:17.156Z,3.23
2018-03-23T03:28:45.277Z,3.18
2018-03-23T03:30:12.419Z,3.09
2018-03-23T03:31:39.627Z,3.03
2018-03-23T03:33:06.860Z,3.04
2018-03-23T03:34:33.973Z,3.06
2018-03-23T03:36:00.141Z,3.11
2018-03-23T03:37:27.294Z,3.13
2018-03-23T03:38:54.678Z,3.15
2018-03-23T03:40:21.960Z,3.17
2018-03-23T03:41:49.338Z,3.20
2018-03-23T03:43:16.291Z,3.23
2018-03-23T03:44:44.482Z,3.25
2018-03-23T03:46:11.628Z,3.28
2018-03-23T03:47:37.820Z,3.32
2018-03-23T03:49:05.113Z,3.34
2018-03-23T03:50:33.177Z,3.30
2018-03-23T03:52:00.511Z,3.21
2018-03-23T03:53:27.752Z,3.11
2018-03-23T03:54:55.037Z,3.09
2018-03-23T03:56:21.096Z,3.13
2018-03-23T03:57:49.092Z,3.18
2018-03-23T03:59:15.438Z,3.22
2018-03-23T04:00:42.632Z,3.25
2018-03-23T04:02:09.686Z,3.20
2018-03-23T04:03:37.974Z,3.07
2018-03-23T04:05:04.188Z,3.03
2018-03-23T04:06:31.298Z,3.04
2018-03-23T04:07:58.651Z,3.05
2018-03-23T04:09:26.755Z,3.05
2018-03-23T04:10:53.124Z,3.02
2018-03-23T04:12:20.422Z,2.99
2018-03-23T04:13:47.531Z,2.99
2018-03-23T04:15:15.632Z,3.00
2018-03-23T04:16:41.785Z,3.01
2018-03-23T04:18:09.940Z,3.03
2018-03-23T04:19:36.103Z,3.02
2018-03-23T04:21:04.249Z,3.02
2018-03-23T04:22:30.201Z,3.03
2018-03-23T04:23:57.506Z,3.02
2018-03-23T04:25:24.967Z,3.05
2018-03-23T04:26:52.023Z,3.08
2018-03-23T04:28:19.268Z,3.07
2018-03-23T04:29:47.451Z,3.10
2018-03-23T04:31:14.693Z,3.11
2018-03-23T04:32:40.804Z,3.12
2018-03-23T04:34:08.102Z,3.11
2018-03-23T04:35:36.282Z,3.07
2018-03-23T04:37:02.474Z,3.04
2018-03-23T04:38:29.701Z,3.03
2018-03-23T04:39:56.866Z,3.04
2018-03-23T04:41:24.931Z,3.07
2018-03-23T04:42:52.196Z,3.05
2018-03-23T04:44:18.283Z,3.01
2018-03-23T04:45:45.395Z,2.97
2018-03-23T04:47:12.459Z,2.96
2018-03-23T04:48:40.627Z,2.96
2018-03-23T04:50:07.467Z,2.95
2018-03-23T04:51:34.636Z,2.92
2018-03-23T04:53:00.892Z,2.93
2018-03-23T04:54:28.159Z,2.97
2018-03-23T04:55:55.281Z,3.01
2018-03-23T04:57:23.596Z,3.06
2018-03-23T04:58:49.935Z,3.10
2018-03-23T05:00:17.091Z,3.13
2018-03-23T05:01:44.297Z,3.16
2018-03-23T05:03:11.485Z,3.16
2018-03-23T05:04:39.562Z,3.15
2018-03-23T05:06:06.550Z,3.12
2018-03-23T05:07:33.523Z,3.13
2018-03-23T05:08:59.678Z,3.17
2018-03-23T05:10:27.961Z,3.19
2018-03-23T05:11:54.243Z,3.21
2018-03-23T05:13:21.549Z,3.23
2018-03-23T05:14:49.858Z,3.26
2018-03-23T05:16:17.004Z,3.28
2018-03-23T05:17:44.111Z,3.29
2018-03-23T05:19:10.228Z,3.31
2018-03-23T05:20:37.417Z,3.31
2018-03-23T05:22:04.665Z,3.30
2018-03-23T05:23:31.951Z,3.29
2018-03-23T05:24:59.092Z,3.30
2018-03-23T05:26:26.363Z,3.31
2018-03-23T05:27:53.581Z,3.33
2018-03-23T05:29:20.907Z,3.34
2018-03-23T05:30:48.034Z,3.36
2018-03-23T05:32:16.186Z,3.36
2018-03-23T05:33:43.487Z,3.37
2018-03-23T05:35:09.510Z,3.37
2018-03-23T05:36:36.756Z,3.38
2018-03-23T05:38:03.883Z,3.39
2018-03-23T05:39:32.164Z,3.41
2018-03-23T05:40:58.374Z,3.41
2018-03-23T05:42:25.549Z,3.42
2018-03-23T05:43:52.594Z,3.42
2018-03-23T05:45:19.699Z,3.44
2018-03-23T05:46:47.930Z,3.45
2018-03-23T05:48:15.090Z,3.46
2018-03-23T05:49:41.896Z,3.45
2018-03-23T05:51:08.004Z,3.46
2018-03-23T05:52:36.098Z,3.47
2018-03-23T05:54:02.384Z,3.47
2018-03-23T05:55:29.724Z,3.49
2018-03-23T05:56:56.969Z,3.49
2018-03-23T05:58:24.111Z,3.47
2018-03-23T05:59:51.371Z,3.49
2018-03-23T06:01:18.443Z,3.50
2018-03-23T06:02:45.555Z,3.50
2018-03-23T06:04:13.664Z,3.51
2018-03-23T06:05:39.757Z,3.51
2018-03-23T06:07:07.904Z,3.51
2018-03-23T06:08:34.239Z,3.51
2018-03-23T06:10:02.533Z,3.51
2018-03-23T06:11:29.662Z,3.51
2018-03-23T06:12:56.992Z,3.50
2018-03-23T06:14:24.168Z,3.50
2018-03-23T06:15:50.401Z,3.49
2018-03-23T06:17:18.410Z,3.47
2018-03-23T06:18:44.674Z,3.43
2018-03-23T06:20:12.882Z,3.44
2018-03-23T06:21:40.167Z,3.46
2018-03-23T06:23:07.392Z,3.49
2018-03-23T06:24:33.641Z,3.51
2018-03-23T06:26:01.939Z,3.53
2018-03-23T06:27:28.151Z,3.54
2018-03-23T06:28:55.265Z,3.55
2018-03-23T06:30:23.583Z,3.55
2018-03-23T06:31:49.727Z,3.57
2018-03-23T06:33:18.025Z,3.58
2018-03-23T06:34:45.224Z,3.60
2018-03-23T06:36:12.443Z,3.61
2018-03-23T06:37:39.717Z,3.58
2018-03-23T06:39:06.952Z,3.56
2018-03-23T06:40:33.090Z,3.56
2018-03-23T06:42:01.239Z,3.57
2018-03-23T06:43:28.457Z,3.59
2018-03-23T06:44:54.750Z,3.60
2018-03-23T06:46:21.998Z,3.62
2018-03-23T06:47:50.315Z,3.63
2018-03-23T06:49:16.425Z,3.60
2018-03-23T06:50:44.447Z,3.56
2018-03-23T06:52:10.635Z,3.50
2018-03-23T06:53:37.857Z,3.45
2018-03-23T06:55:06.145Z,3.42
2018-03-23T06:56:33.397Z,3.42
2018-03-23T06:57:59.629Z,3.46
2018-03-23T06:59:27.841Z,3.49
2018-03-23T07:00:55.068Z,3.51
2018-03-23T07:02:21.208Z,3.54
2018-03-23T07:03:49.365Z,3.50
2018-03-23T07:05:15.564Z,3.45
2018-03-23T07:06:42.812Z,3.39
2018-03-23T07:08:09.958Z,3.33
2018-03-23T07:09:37.228Z,3.29
2018-03-23T07:11:05.449Z,3.26
2018-03-23T07:12:31.582Z,3.24
2018-03-23T07:13:58.894Z,3.21
2018-03-23T07:15:26.119Z,3.20
2018-03-23T07:16:54.147Z,3.18
2018-03-23T07:18:21.274Z,3.19
2018-03-23T07:19:47.326Z,3.19
2018-03-23T07:21:15.588Z,3.21
2018-03-23T07:22:41.792Z,3.20
2018-03-23T07:24:09.057Z,3.19
2018-03-23T07:25:36.990Z,3.19
2018-03-23T07:27:04.279Z,3.19
2018-03-23T07:28:31.445Z,3.18
2018-03-23T07:29:57.852Z,3.17
2018-03-23T07:31:25.048Z,3.18
2018-03-23T07:32:52.306Z,3.18
2018-03-23T07:34:19.472Z,3.20
2018-03-23T07:35:47.565Z,3.22
2018-03-23T07:37:13.708Z,3.23
2018-03-23T07:38:40.846Z,3.25
2018-03-23T07:40:09.148Z,3.29
2018-03-23T07:41:35.370Z,3.31
2018-03-23T07:43:02.428Z,3.31
2018-03-23T07:44:29.658Z,3.32
2018-03-23T07:45:56.940Z,3.32
2018-03-23T07:47:25.205Z,3.30
2018-03-23T07:48:51.389Z,3.24
2018-03-23T07:50:18.552Z,3.22
2018-03-23T07:51:45.787Z,3.24
2018-03-23T07:53:13.865Z,3.30
2018-03-23T07:54:40.094Z,3.28
2018-03-23T07:56:08.350Z,3.26
2018-03-23T07:57:34.529Z,3.25
2018-03-23T07:59:01.624Z,3.22
2018-03-23T08:00:28.885Z,3.21
2018-03-23T08:01:55.994Z,3.24
2018-03-23T08:03:23.252Z,3.24
2018-03-23T08:04:50.340Z,3.26
2018-03-23T08:06:18.588Z,3.28
2018-03-23T08:07:44.927Z,3.25
2018-03-23T08:09:12.926Z,3.26
2018-03-23T08:10:39.034Z,3.28
2018-03-23T08:12:06.132Z,3.30
2018-03-23T08:13:33.297Z,3.28
2018-03-23T08:15:01.681Z,3.28
2018-03-23T08:16:27.982Z,3.29
2018-03-23T08:17:55.265Z,3.32
2018-03-23T08:19:22.489Z,3.33
2018-03-23T08:20:49.713Z,3.31
2018-03-23T08:22:16.844Z,3.29
2018-03-23T08:23:45.021Z,3.28
2018-03-23T08:25:10.856Z,3.32
2018-03-23T08:26:39.055Z,3.35
2018-03-23T08:28:05.293Z,3.40
2018-03-23T08:29:32.493Z,3.39
2018-03-23T08:31:00.721Z,3.39
2018-03-23T08:32:27.802Z,3.43
2018-03-23T08:33:53.972Z,3.48
2018-03-23T08:35:21.257Z,3.56
2018-03-23T08:36:48.339Z,3.55
2018-03-23T08:38:16.621Z,3.55
2018-03-23T08:39:43.910Z,3.53
2018-03-23T08:41:11.077Z,3.51
2018-03-23T08:42:37.250Z,3.55
2018-03-23T08:44:04.516Z,3.60
2018-03-23T08:45:32.742Z,3.65
2018-03-23T08:46:59.895Z,3.65
2018-03-23T08:48:27.140Z,3.71
2018-03-23T08:49:53.250Z,3.68
2018-03-23T08:51:20.236Z,3.64
2018-03-23T08:52:47.321Z,3.63
2018-03-23T08:54:14.505Z,3.60
2018-03-23T08:55:41.644Z,3.53
2018-03-23T08:57:08.750Z,3.49
2018-03-23T08:58:36.015Z,3.49
2018-03-23T09:00:03.204Z,3.44
2018-03-23T09:01:31.384Z,3.42
2018-03-23T09:02:57.708Z,3.40
2018-03-23T09:04:24.994Z,3.40
2018-03-23T09:05:52.179Z,3.40
2018-03-23T09:07:19.389Z,3.38
2018-03-23T09:08:46.656Z,3.37
2018-03-23T09:10:13.711Z,3.38
2018-03-23T09:11:41.808Z,3.39
2018-03-23T09:13:07.776Z,3.39
2018-03-23T09:14:36.073Z,3.41
2018-03-23T09:16:02.435Z,3.43
2018-03-23T09:17:29.695Z,3.46
2018-03-23T09:18:56.882Z,3.50
2018-03-23T09:20:24.056Z,3.53
2018-03-23T09:21:52.421Z,3.52
2018-03-23T09:23:18.529Z,3.50
2018-03-23T09:24:45.766Z,3.51
2018-03-23T09:26:12.930Z,3.52
2018-03-23T09:27:39.968Z,3.57
2018-03-23T09:29:10.251Z,3.58
2018-03-23T09:30:34.439Z,3.55
2018-03-23T09:32:01.711Z,3.51
2018-03-23T09:33:28.890Z,3.49
2018-03-23T09:34:57.079Z,3.49
2018-03-23T09:36:23.229Z,3.49
2018-03-23T09:37:51.452Z,3.49
2018-03-23T09:39:18.608Z,3.50
2018-03-23T09:40:45.810Z,3.54
2018-03-23T09:42:12.926Z,3.60
2018-03-23T09:43:39.218Z,3.66
2018-03-23T09:45:07.460Z,3.66
2018-03-23T09:46:34.566Z,3.68
2018-03-23T09:48:01.891Z,3.67
2018-03-23T09:49:27.962Z,3.64
2018-03-23T09:50:55.283Z,3.61
2018-03-23T09:52:22.496Z,3.63
2018-03-23T09:53:49.790Z,3.60
2018-03-23T09:55:18.031Z,3.52
2018-03-23T09:56:45.238Z,3.48
2018-03-23T09:58:11.395Z,3.46
2018-03-23T09:59:38.539Z,3.47
2018-03-23T10:01:06.924Z,3.44
2018-03-23T10:02:33.043Z,3.48
2018-03-23T10:04:01.482Z,3.51
2018-03-23T10:05:28.517Z,3.53
2018-03-23T10:06:54.705Z,3.56
2018-03-23T10:08:22.128Z,3.58
2018-03-23T10:09:49.454Z,3.62
2018-03-23T10:11:16.531Z,3.63
2018-03-23T10:12:43.856Z,3.71
2018-03-23T10:14:10.994Z,3.81
2018-03-23T10:15:39.268Z,3.82
2018-03-23T10:17:06.439Z,3.85
2018-03-23T10:18:32.701Z,3.85
2018-03-23T10:19:59.975Z,3.81
2018-03-23T10:21:27.311Z,3.72
2018-03-23T10:22:54.554Z,3.69
2018-03-23T10:24:21.689Z,3.69
2018-03-23T10:25:49.950Z,3.67
2018-03-23T10:27:16.132Z,3.68
2018-03-23T10:28:44.398Z,3.66
2018-03-23T10:30:10.574Z,3.66
2018-03-23T10:31:37.788Z,3.67
2018-03-23T10:33:06.115Z,3.65
2018-03-23T10:34:32.420Z,3.64
2018-03-23T10:36:00.782Z,3.61
2018-03-23T10:37:27.991Z,3.61
2018-03-23T10:38:55.093Z,3.60
2018-03-23T10:40:21.296Z,3.59
2018-03-23T10:41:49.529Z,3.60
2018-03-23T10:43:15.626Z,3.62
2018-03-23T10:44:43.757Z,3.69
2018-03-23T10:46:09.578Z,3.71
2018-03-23T10:47:36.709Z,3.69
2018-03-23T10:49:03.959Z,3.72
2018-03-23T10:50:31.296Z,3.75
2018-03-23T10:51:59.495Z,3.79
2018-03-23T10:53:25.630Z,3.83
2018-03-23T10:54:53.646Z,3.91
2018-03-23T10:56:19.970Z,4.00
2018-03-23T10:57:47.019Z,4.09
2018-03-23T10:59:14.223Z,4.17
2018-03-23T11:00:41.423Z,4.24
2018-03-23T11:02:08.564Z,4.19
2018-03-23T11:03:35.679Z,4.15
2018-03-23T11:05:03.977Z,4.10
2018-03-23T11:06:30.240Z,4.08
2018-03-23T11:07:58.336Z,4.08
2018-03-23T11:09:24.491Z,4.13
2018-03-23T11:10:51.872Z,4.17
2018-03-23T11:12:18.906Z,4.16
2018-03-23T11:13:46.177Z,4.10
2018-03-23T11:15:14.245Z,4.09
2018-03-23T11:16:40.451Z,4.08
2018-03-23T11:18:07.548Z,4.09
2018-03-23T11:19:34.863Z,4.15
2018-03-23T11:21:02.218Z,4.22
2018-03-23T11:22:29.455Z,4.31
2018-03-23T11:23:56.718Z,4.39
2018-03-23T11:25:24.896Z,4.45
2018-03-23T11:26:51.265Z,4.46
2018-03-23T11:28:18.617Z,4.49
2018-03-23T11:29:45.874Z,4.48
2018-03-23T11:31:13.053Z,4.45
2018-03-23T11:32:40.139Z,4.49
2018-03-23T11:34:07.432Z,4.49
2018-03-23T11:35:34.755Z,4.39
2018-03-23T11:37:01.824Z,4.34
2018-03-23T11:38:30.132Z,4.24
2018-03-23T11:39:57.441Z,4.17
2018-03-23T11:41:23.760Z,4.23
2018-03-23T11:42:52.041Z,4.32
2018-03-23T11:44:18.294Z,4.34
2018-03-23T11:45:46.648Z,4.38
2018-03-23T11:47:12.790Z,4.44
2018-03-23T11:48:39.682Z,4.45
2018-03-23T11:50:06.771Z,4.39
2018-03-23T11:51:33.969Z,4.34
2018-03-23T11:53:01.204Z,4.25
2018-03-23T11:54:28.392Z,4.22
2018-03-23T11:55:55.526Z,4.15
2018-03-23T11:57:22.733Z,4.12
2018-03-23T11:58:50.010Z,4.19
2018-03-23T12:00:17.254Z,4.27
2018-03-23T12:01:45.573Z,4.27
2018-03-23T12:03:11.522Z,4.24
2018-03-23T12:04:38.834Z,4.19
2018-03-23T12:06:06.089Z,4.19
2018-03-23T12:07:34.378Z,4.17
2018-03-23T12:09:01.688Z,4.19
2018-03-23T12:10:28.974Z,4.25
2018-03-23T12:11:55.350Z,4.29
2018-03-23T12:13:23.549Z,4.26
2018-03-23T12:14:49.843Z,4.30
2018-03-23T12:16:18.092Z,4.34
2018-03-23T12:17:45.279Z,4.43
2018-03-23T12:19:11.499Z,4.50
2018-03-23T12:20:38.728Z,4.50
2018-03-23T12:22:07.073Z,4.46
2018-03-23T12:23:33.236Z,4.43
2018-03-23T12:25:00.419Z,4.45
2018-03-23T12:26:28.579Z,4.50
2018-03-23T12:27:54.796Z,4.50
2018-03-23T12:29:23.087Z,4.56
2018-03-23T12:30:49.259Z,4.63
2018-03-23T12:32:16.559Z,4.67
2018-03-23T12:33:44.770Z,4.67
2018-03-23T12:35:10.830Z,4.61
2018-03-23T12:36:38.896Z,4.49
2018-03-23T12:38:06.102Z,4.42
2018-03-23T12:39:33.411Z,4.37
2018-03-23T12:40:59.672Z,4.39
2018-03-23T12:42:26.903Z,4.43
2018-03-23T12:43:54.139Z,4.47
2018-03-23T12:45:22.208Z,4.39
2018-03-23T12:46:48.444Z,4.41
2018-03-23T12:48:16.603Z,4.43
2018-03-23T12:49:42.822Z,4.40
2018-03-23T12:51:11.077Z,4.30
2018-03-23T12:52:37.323Z,4.22
2018-03-23T12:54:04.454Z,4.17
2018-03-23T12:55:31.675Z,4.16
2018-03-23T12:56:58.968Z,4.25
2018-03-23T12:58:26.102Z,4.32
2018-03-23T12:59:53.081Z,4.28
2018-03-23T13:01:20.198Z,4.23
2018-03-23T13:02:47.390Z,4.22
2018-03-23T13:04:15.604Z,4.23
2018-03-23T13:05:41.856Z,4.21
2018-03-23T13:07:09.002Z,4.20
2018-03-23T13:08:36.342Z,4.21
2018-03-23T13:10:04.486Z,4.27
2018-03-23T13:11:31.693Z,4.29
2018-03-23T13:12:57.910Z,4.26
2018-03-23T13:14:25.162Z,4.22
2018-03-23T13:15:52.091Z,4.24
2018-03-23T13:17:19.092Z,4.25
2018-03-23T13:18:46.227Z,4.28
2018-03-23T13:20:14.378Z,4.35
2018-03-23T13:21:40.392Z,4.36
2018-03-23T13:23:07.733Z,4.39
2018-03-23T13:24:36.066Z,4.46
2018-03-23T13:26:02.256Z,4.51
2018-03-23T13:27:29.578Z,4.51
2018-03-23T13:28:56.834Z,4.48
2018-03-23T13:30:23.948Z,4.43
2018-03-23T13:31:52.213Z,4.38
2018-03-23T13:33:19.417Z,4.38
2018-03-23T13:34:45.608Z,4.38
2018-03-23T13:36:12.817Z,4.39
2018-03-23T13:37:39.916Z,4.40
2018-03-23T13:39:07.273Z,4.40
2018-03-23T13:40:35.449Z,4.36
2018-03-23T13:42:07.570Z,4.32
2018-03-23T13:43:28.830Z,4.31
2018-03-23T13:44:57.102Z,4.35
2018-03-23T13:46:24.304Z,4.36
2018-03-23T13:47:51.568Z,4.34
2018-03-23T13:49:18.592Z,4.28
2018-03-23T13:50:44.830Z,4.26
2018-03-23T13:52:12.870Z,4.23
2018-03-23T13:53:40.192Z,4.24
2018-03-23T13:55:06.378Z,4.24
2018-03-23T13:56:33.690Z,4.24
2018-03-23T13:58:00.835Z,4.23
2018-03-23T13:59:29.054Z,4.21
2018-03-23T14:00:55.354Z,4.20
2018-03-23T14:02:22.362Z,4.16
2018-03-23T14:03:50.525Z,4.14
2018-03-23T14:05:17.584Z,4.11
2018-03-23T14:06:44.765Z,4.12
2018-03-23T14:08:11.863Z,4.11
2018-03-23T14:09:38.110Z,4.11
2018-03-23T14:11:05.314Z,4.17
2018-03-23T14:12:33.412Z,4.20
2018-03-23T14:13:59.518Z,4.22
2018-03-23T14:15:26.833Z,4.23
2018-03-23T14:16:55.044Z,4.24
2018-03-23T14:18:21.207Z,4.22
2018-03-23T14:19:48.269Z,4.18
2018-03-23T14:21:16.473Z,4.19
2018-03-23T14:22:43.826Z,4.18
2018-03-23T14:24:10.768Z,4.16
2018-03-23T14:25:38.003Z,4.13
2018-03-23T14:27:05.154Z,4.14
2018-03-23T14:28:31.116Z,4.14
2018-03-23T14:29:59.250Z,4.13
2018-03-23T14:31:25.491Z,4.15
2018-03-23T14:32:52.774Z,4.13
2018-03-23T14:34:20.940Z,4.12
2018-03-23T14:35:48.149Z,4.09
2018-03-23T14:37:15.217Z,4.10
2018-03-23T14:38:41.221Z,4.10
2018-03-23T14:40:09.326Z,4.11
2018-03-23T14:41:35.683Z,4.14
2018-03-23T14:43:02.857Z,4.16
2018-03-23T14:44:30.169Z,4.18
2018-03-23T14:45:57.449Z,4.18
2018-03-23T14:47:25.743Z,4.21
2018-03-23T14:48:51.937Z,4.21
2018-03-23T14:50:18.995Z,4.22
2018-03-23T14:51:46.214Z,4.22
2018-03-23T14:53:13.441Z,4.15
2018-03-23T14:54:41.571Z,4.11
2018-03-23T14:56:07.761Z,4.08
2018-03-23T14:57:36.010Z,4.07
2018-03-23T14:59:02.067Z,4.07
2018-03-23T15:00:29.260Z,4.05
2018-03-23T15:01:56.239Z,4.05
2018-03-23T15:03:24.458Z,4.05
2018-03-23T15:04:51.684Z,4.06
2018-03-23T15:06:17.776Z,4.09
2018-03-23T15:07:46.010Z,4.11
2018-03-23T15:09:13.240Z,4.16
2018-03-23T15:10:39.563Z,4.23
2018-03-23T15:12:06.941Z,4.27
2018-03-23T15:13:34.128Z,4.24
2018-03-23T15:15:02.355Z,4.23
2018-03-23T15:16:28.540Z,4.20
2018-03-23T15:17:55.790Z,4.22
2018-03-23T15:19:22.914Z,4.24
2018-03-23T15:20:50.022Z,4.27
2018-03-23T15:22:17.292Z,4.26
2018-03-23T15:23:45.551Z,4.27
2018-03-23T15:25:11.639Z,4.32
2018-03-23T15:26:38.815Z,4.34
2018-03-23T15:28:05.958Z,4.30
2018-03-23T15:29:34.196Z,4.31
2018-03-23T15:31:00.493Z,4.29
2018-03-23T15:32:27.637Z,4.24
2018-03-23T15:33:54.691Z,4.22
2018-03-23T15:35:22.954Z,4.23
2018-03-23T15:36:50.034Z,4.24
2018-03-23T15:38:16.259Z,4.25
2018-03-23T15:39:43.447Z,4.26
2018-03-23T15:41:11.581Z,4.30
2018-03-23T15:42:37.869Z,4.35
2018-03-23T15:44:04.950Z,4.39
2018-03-23T15:45:33.194Z,4.45
2018-03-23T15:47:00.457Z,4.46
2018-03-23T15:48:26.708Z,4.45
2018-03-23T15:49:53.849Z,4.47
2018-03-23T15:51:21.117Z,4.49
2018-03-23T15:52:48.222Z,4.51
2018-03-23T15:54:15.466Z,4.54
2018-03-23T15:55:43.538Z,4.56
2018-03-23T15:57:09.478Z,4.55
2018-03-23T15:58:36.796Z,4.51
2018-03-23T16:00:05.014Z,4.44
2018-03-23T16:01:31.268Z,4.40
2018-03-23T16:02:58.413Z,4.37
2018-03-23T16:04:26.688Z,4.38
2018-03-23T16:05:53.792Z,4.39
2018-03-23T16:07:21.083Z,4.34
2018-03-23T16:08:47.309Z,4.32
2018-03-23T16:10:14.514Z,4.33
2018-03-23T16:11:42.788Z,4.34
2018-03-23T16:13:08.815Z,4.28
2018-03-23T16:14:36.132Z,4.22
2018-03-23T16:16:04.332Z,4.15
2018-03-23T16:17:30.525Z,4.13
2018-03-23T16:18:57.863Z,4.09
2018-03-23T16:20:25.220Z,4.07
2018-03-23T16:21:52.400Z,4.04
2018-03-23T16:23:19.540Z,4.03
2018-03-23T16:24:46.806Z,4.00
2018-03-23T16:26:13.919Z,4.00
2018-03-23T16:27:41.153Z,4.00
2018-03-23T16:29:09.502Z,4.04
2018-03-23T16:30:36.725Z,4.04
2018-03-23T16:32:03.907Z,4.10
2018-03-23T16:33:30.082Z,4.13
2018-03-23T16:34:57.293Z,4.13
2018-03-23T16:36:25.620Z,4.07
2018-03-23T16:37:51.799Z,4.01
2018-03-23T16:39:19.009Z,3.99
2018-03-23T16:40:46.178Z,3.96
2018-03-23T16:42:14.159Z,3.91
2018-03-23T16:43:41.175Z,3.90
2018-03-23T16:45:07.416Z,3.85
2018-03-23T16:46:35.651Z,3.82
2018-03-23T16:48:01.916Z,3.81
2018-03-23T16:49:30.080Z,3.77
2018-03-23T16:50:57.131Z,3.78
2018-03-23T16:52:24.365Z,3.76
2018-03-23T16:53:51.657Z,3.74
2018-03-23T16:55:18.962Z,3.72
2018-03-23T16:56:46.195Z,3.70
2018-03-23T16:58:12.311Z,3.67
2018-03-23T16:59:40.608Z,3.65
2018-03-23T17:01:06.888Z,3.63
2018-03-23T17:02:34.116Z,3.59
2018-03-23T17:04:01.316Z,3.59
2018-03-23T17:05:28.548Z,3.57
2018-03-23T17:06:56.853Z,3.54
2018-03-23T17:08:23.135Z,3.53
2018-03-23T17:09:51.418Z,3.55
2018-03-23T17:11:18.744Z,3.55
2018-03-23T17:12:45.837Z,3.52
2018-03-23T17:14:11.860Z,3.53
2018-03-23T17:15:38.966Z,3.53
2018-03-23T17:17:06.278Z,3.52
2018-03-23T17:18:34.561Z,3.51
2018-03-23T17:20:01.628Z,3.50
2018-03-23T17:21:27.808Z,3.51
2018-03-23T17:22:55.051Z,3.51
2018-03-23T17:24:23.206Z,3.50
2018-03-23T17:25:49.438Z,3.51
2018-03-23T17:27:16.604Z,3.49
2018-03-23T17:28:43.808Z,3.46
2018-03-23T17:30:11.004Z,3.44
2018-03-23T17:31:39.296Z,3.41
2018-03-23T17:33:05.616Z,3.37
2018-03-23T17:34:33.899Z,3.34
2018-03-23T17:36:01.198Z,3.31
2018-03-23T17:37:27.381Z,3.28
2018-03-23T17:38:55.733Z,3.29
2018-03-23T17:40:21.888Z,3.25
2018-03-23T17:41:49.983Z,3.22
2018-03-23T17:43:16.062Z,3.22
2018-03-23T17:44:43.270Z,3.23
2018-03-23T17:46:10.303Z,3.20
2018-03-23T17:47:38.515Z,3.21
2018-03-23T17:49:05.884Z,3.21
2018-03-23T17:50:33.151Z,3.22
2018-03-23T17:52:00.253Z,3.21
2018-03-23T17:53:27.536Z,3.21
2018-03-23T17:54:54.523Z,3.19
2018-03-23T17:56:20.701Z,3.19
2018-03-23T17:57:47.986Z,3.16
2018-03-23T17:59:15.106Z,3.15
2018-03-23T18:00:43.320Z,3.15
2018-03-23T18:02:10.654Z,3.15
2018-03-23T18:03:37.844Z,3.14
2018-03-23T18:05:03.913Z,3.13
2018-03-23T18:06:31.210Z,3.13
2018-03-23T18:07:59.336Z,3.12
2018-03-23T18:09:26.502Z,3.12
2018-03-23T18:10:52.804Z,3.12
2018-03-23T18:12:21.059Z,3.12
2018-03-23T18:13:48.254Z,3.12
2018-03-23T18:15:15.329Z,3.12
2018-03-23T18:16:42.362Z,3.14
2018-03-23T18:18:09.533Z,3.18
2018-03-23T18:19:36.810Z,3.24
2018-03-23T18:21:02.844Z,3.28
2018-03-23T18:22:30.075Z,3.30
2018-03-23T18:23:58.232Z,3.26
2018-03-23T18:25:24.430Z,3.22
2018-03-23T18:26:51.754Z,3.16
2018-03-23T18:28:18.829Z,3.14
2018-03-23T18:29:46.951Z,3.16
2018-03-23T18:31:13.184Z,3.21
2018-03-23T18:32:41.316Z,3.27
2018-03-23T18:34:07.586Z,3.31
2018-03-23T18:35:35.703Z,3.26
2018-03-23T18:37:01.789Z,3.24
2018-03-23T18:38:29.817Z,3.21
2018-03-23T18:39:56.147Z,3.16
2018-03-23T18:41:23.290Z,3.16
2018-03-23T18:42:51.522Z,3.21
2018-03-23T18:44:17.721Z,3.25
2018-03-23T18:45:44.900Z,3.30
2018-03-23T18:47:12.095Z,3.32
2018-03-23T18:48:40.287Z,3.30
2018-03-23T18:50:07.422Z,3.34
2018-03-23T18:51:34.660Z,3.38
2018-03-23T18:53:00.766Z,3.37
2018-03-23T18:54:27.838Z,3.34
2018-03-23T18:55:54.961Z,3.30
2018-03-23T18:57:22.164Z,3.27
2018-03-23T18:58:50.305Z,3.22
2018-03-23T19:00:16.436Z,3.19
2018-03-23T19:01:43.643Z,3.18
2018-03-23T19:03:11.756Z,3.17
2018-03-23T19:04:37.882Z,3.13
2018-03-23T19:06:06.055Z,3.11
2018-03-23T19:07:33.236Z,3.10
2018-03-23T19:08:59.415Z,3.13
2018-03-23T19:10:26.807Z,3.11
2018-03-23T19:11:53.809Z,3.09
2018-03-23T19:13:21.963Z,3.06
2018-03-23T19:14:49.059Z,3.03
2018-03-23T19:16:16.263Z,3.07
2018-03-23T19:17:42.376Z,3.03
2018-03-23T19:19:09.739Z,3.05
2018-03-23T19:20:36.972Z,3.05